createdAt,value
2023-02-05T00:01:25.591Z,87.61
2023-02-05T00:06:35.386Z,87.29
2023-02-05T00:12:47.468Z,87.21
2023-02-05T00:18:31.077Z,87.25
2023-02-05T00:24:37.184Z,87.30
2023-02-05T00:29:59.764Z,86.76
2023-02-05T00:35:12.325Z,87.65
2023-02-05T00:40:44.893Z,87.85
2023-02-05T00:45:56.301Z,87.70
2023-02-05T00:51:19.334Z,87.73
2023-02-05T00:57:09.504Z,87.16
2023-02-05T01:02:38.449Z,86.92
2023-02-05T01:08:07.818Z,86.79
2023-02-05T01:13:36.583Z,85.96
2023-02-05T01:18:45.099Z,84.74
2023-02-05T01:24:01.868Z,83.72
2023-02-05T01:29:05.326Z,83.69
2023-02-05T01:34:54.363Z,83.96
2023-02-05T01:39:58.378Z,84.24
2023-02-05T01:46:16.196Z,83.60
2023-02-05T01:51:49.103Z,83.02
2023-02-05T01:57:42.635Z,83.14
2023-02-05T02:03:04.348Z,83.04
2023-02-05T02:08:13.584Z,82.97
2023-02-05T02:13:30.773Z,83.58
2023-02-05T02:18:39.502Z,83.74
2023-02-05T02:24:19.308Z,83.43
2023-02-05T02:30:00.253Z,83.19
2023-02-05T02:36:07.942Z,83.50
2023-02-05T02:42:04.781Z,84.10
2023-02-05T02:47:35.516Z,84.35
2023-02-05T02:52:50.424Z,84.49
2023-02-05T02:58:32.218Z,84.72
2023-02-05T03:03:59.289Z,85.00
2023-02-05T03:09:54.516Z,85.03
2023-02-05T03:15:15.677Z,84.96
2023-02-05T03:21:10.782Z,85.11
2023-02-05T03:26:42.234Z,85.43
2023-02-05T03:32:41.239Z,85.56
2023-02-05T03:38:21.605Z,85.33
2023-02-05T03:44:18.939Z,85.15
2023-02-05T03:49:33.337Z,84.54
2023-02-05T03:55:39.767Z,84.18
2023-02-05T04:00:44.552Z,83.41
2023-02-05T04:06:00.278Z,83.59
2023-02-05T04:11:04.220Z,83.50
2023-02-05T04:16:19.973Z,83.79
2023-02-05T04:21:49.059Z,83.89
2023-02-05T04:27:08.666Z,83.91
2023-02-05T04:32:24.073Z,84.24
2023-02-05T04:37:46.057Z,84.32
2023-02-05T04:42:54.584Z,84.44
2023-02-05T04:48:06.687Z,84.24
2023-02-05T04:53:13.604Z,84.17
2023-02-05T04:58:21.844Z,84.08
2023-02-05T05:03:33.415Z,83.99
2023-02-05T05:08:37.069Z,84.12
2023-02-05T05:13:49.303Z,84.28
2023-02-05T05:19:01.378Z,84.26
2023-02-05T05:24:12.448Z,84.11
2023-02-05T05:29:48.275Z,83.96
2023-02-05T05:35:00.278Z,83.98
2023-02-05T05:40:22.869Z,83.73
2023-02-05T05:45:49.427Z,84.19
2023-02-05T05:51:20.578Z,84.07
2023-02-05T05:56:39.257Z,84.01
2023-02-05T06:01:42.407Z,84.58
2023-02-05T06:06:45.512Z,84.57
2023-02-05T06:11:49.222Z,84.11
2023-02-05T06:16:55.320Z,83.61
2023-02-05T06:21:58.415Z,83.50
2023-02-05T06:27:04.335Z,83.63
2023-02-05T06:32:10.564Z,83.28
2023-02-05T06:37:16.756Z,83.37
2023-02-05T06:42:22.706Z,83.50
2023-02-05T06:47:33.107Z,83.63
2023-02-05T06:52:51.667Z,83.90
2023-02-05T06:57:55.129Z,83.83
2023-02-05T07:02:58.015Z,83.50
2023-02-05T07:08:15.308Z,83.60
2023-02-05T07:13:30.240Z,83.34
2023-02-05T07:18:35.015Z,83.53
2023-02-05T07:23:38.177Z,83.27
2023-02-05T07:28:48.112Z,83.40
2023-02-05T07:34:12.686Z,83.70
2023-02-05T07:39:24.092Z,83.55
2023-02-05T07:44:27.608Z,83.68
2023-02-05T07:49:33.309Z,83.61
2023-02-05T07:54:46.981Z,82.27
2023-02-05T07:59:53.489Z,82.93
2023-02-05T08:04:57.059Z,82.67
2023-02-05T08:10:00.610Z,83.08
2023-02-05T08:15:04.167Z,82.63
2023-02-05T08:20:11.566Z,81.12
2023-02-05T08:25:18.886Z,79.96
2023-02-05T08:30:30.617Z,78.97
2023-02-05T08:35:37.814Z,77.91
2023-02-05T08:40:44.436Z,78.03
2023-02-05T08:45:59.508Z,78.12
2023-02-05T08:51:06.795Z,78.54
2023-02-05T08:56:14.232Z,77.39
2023-02-05T09:01:18.563Z,76.93
2023-02-05T09:06:24.872Z,77.15
2023-02-05T09:11:30.795Z,77.40
2023-02-05T09:16:36.801Z,75.59
2023-02-05T09:21:41.763Z,76.85
2023-02-05T09:26:53.619Z,76.06
2023-02-05T09:31:57.361Z,75.54
2023-02-05T09:37:07.680Z,75.79
2023-02-05T09:42:43.550Z,75.68
2023-02-05T09:48:49.430Z,74.54
2023-02-05T09:54:01.284Z,74.45
2023-02-05T09:59:08.546Z,74.31
2023-02-05T10:04:12.031Z,74.96
2023-02-05T10:09:40.425Z,74.27
2023-02-05T10:15:24.719Z,73.56
2023-02-05T10:21:06.324Z,73.76
2023-02-05T10:26:15.647Z,73.69
2023-02-05T10:31:42.488Z,73.78
2023-02-05T10:36:54.733Z,73.26
2023-02-05T10:42:18.343Z,72.46
2023-02-05T10:47:55.440Z,72.22
2023-02-05T10:52:58.848Z,73.20
2023-02-05T10:58:47.997Z,72.97
2023-02-05T11:04:16.236Z,71.73
2023-02-05T11:09:31.992Z,71.43
2023-02-05T11:15:03.996Z,71.64
2023-02-05T11:20:24.019Z,70.49
2023-02-05T11:25:36.941Z,71.58
2023-02-05T11:30:51.469Z,72.09
2023-02-05T11:36:03.488Z,71.96
2023-02-05T11:41:08.897Z,71.75
2023-02-05T11:46:46.083Z,71.29
2023-02-05T11:51:55.690Z,71.77
2023-02-05T11:57:42.041Z,72.03
2023-02-05T12:02:56.882Z,71.61
2023-02-05T12:08:38.793Z,71.82
2023-02-05T12:13:53.650Z,72.44
2023-02-05T12:19:13.735Z,72.04
2023-02-05T12:24:45.312Z,72.36
2023-02-05T12:30:30.110Z,72.82
2023-02-05T12:36:09.263Z,73.34
2023-02-05T12:41:49.810Z,72.65
2023-02-05T12:46:58.860Z,71.99
2023-02-05T12:52:45.603Z,72.22
2023-02-05T12:58:08.149Z,72.25
2023-02-05T13:03:43.698Z,71.38
2023-02-05T13:09:24.562Z,71.79
2023-02-05T13:14:48.406Z,72.13
2023-02-05T13:20:05.466Z,72.31
2023-02-05T13:26:04.695Z,72.18
2023-02-05T13:31:31.337Z,71.83
2023-02-05T13:37:21.708Z,72.14
2023-02-05T13:42:48.389Z,72.29
2023-02-05T13:48:28.518Z,72.24
2023-02-05T13:53:49.931Z,71.71
2023-02-05T13:59:10.530Z,71.82
2023-02-05T14:04:30.813Z,71.96
2023-02-05T14:09:42.043Z,72.54
2023-02-05T14:14:58.689Z,72.96
2023-02-05T14:20:06.202Z,72.82
2023-02-05T14:25:42.820Z,73.04
2023-02-05T14:30:50.188Z,73.64
2023-02-05T14:36:21.338Z,73.96
2023-02-05T14:41:58.947Z,74.29
2023-02-05T14:47:27.391Z,74.51
2023-02-05T14:53:09.106Z,74.57
2023-02-05T14:58:38.544Z,74.92
2023-02-05T15:03:55.887Z,75.24
2023-02-05T15:09:13.620Z,75.36
2023-02-05T15:14:46.951Z,75.85
2023-02-05T15:19:57.384Z,76.36
2023-02-05T15:25:29.336Z,76.85
2023-02-05T15:30:58.607Z,77.19
2023-02-05T15:36:56.534Z,77.93
2023-02-05T15:42:31.243Z,78.08
2023-02-05T15:47:34.666Z,79.01
2023-02-05T15:52:38.078Z,78.39
2023-02-05T15:57:41.459Z,78.06
2023-02-05T16:02:57.038Z,78.08
2023-02-05T16:08:03.169Z,77.89
2023-02-05T16:13:21.136Z,78.29
2023-02-05T16:18:54.806Z,79.14
2023-02-05T16:24:03.389Z,79.21
2023-02-05T16:29:24.845Z,79.59
2023-02-05T16:34:33.782Z,80.35
2023-02-05T16:39:46.352Z,80.86
2023-02-05T16:44:57.510Z,80.90
2023-02-05T16:50:01.231Z,80.52
2023-02-05T16:55:27.300Z,80.93
2023-02-05T17:00:34.615Z,81.53
2023-02-05T17:05:44.582Z,81.80
2023-02-05T17:10:59.552Z,81.41
2023-02-05T17:16:33.966Z,81.61
2023-02-05T17:21:37.910Z,80.96
2023-02-05T17:26:43.238Z,80.71
2023-02-05T17:31:46.642Z,80.50
2023-02-05T17:36:51.562Z,80.51
2023-02-05T17:42:07.804Z,80.64
2023-02-05T17:47:20.957Z,80.88
2023-02-05T17:52:27.045Z,81.08
2023-02-05T17:57:34.084Z,80.86
2023-02-05T18:02:40.620Z,80.79
2023-02-05T18:07:58.186Z,80.82
2023-02-05T18:13:01.357Z,80.88
2023-02-05T18:18:04.458Z,80.82
2023-02-05T18:23:28.242Z,80.82
2023-02-05T18:28:35.394Z,80.89
2023-02-05T18:33:41.500Z,81.81
2023-02-05T18:38:47.496Z,82.34
2023-02-05T18:43:56.958Z,81.61
2023-02-05T18:48:59.987Z,81.71
2023-02-05T18:54:06.755Z,81.75
2023-02-05T18:59:16.735Z,81.63
2023-02-05T19:04:21.053Z,81.46
2023-02-05T19:09:26.467Z,81.40
2023-02-05T19:14:29.617Z,81.50
2023-02-05T19:19:34.361Z,81.82
2023-02-05T19:24:37.541Z,81.87
2023-02-05T19:29:41.208Z,82.75
2023-02-05T19:34:46.756Z,82.72
2023-02-05T19:39:49.664Z,82.42
2023-02-05T19:44:53.067Z,82.54
2023-02-05T19:49:56.100Z,82.41
2023-02-05T19:54:59.103Z,82.52
2023-02-05T20:00:02.154Z,82.55
2023-02-05T20:05:06.083Z,82.58
2023-02-05T20:10:09.343Z,82.52
2023-02-05T20:15:12.307Z,82.55
2023-02-05T20:20:28.172Z,82.54
2023-02-05T20:25:35.787Z,82.57
2023-02-05T20:31:01.173Z,82.67
2023-02-05T20:36:07.314Z,82.64
2023-02-05T20:41:17.630Z,82.94
2023-02-05T20:46:20.944Z,82.86
2023-02-05T20:51:24.694Z,82.89
2023-02-05T20:56:30.216Z,82.86
2023-02-05T21:01:36.101Z,82.80
2023-02-05T21:06:41.080Z,82.89
2023-02-05T21:11:44.169Z,82.89
2023-02-05T21:16:47.133Z,83.11
2023-02-05T21:21:51.256Z,82.99
2023-02-05T21:26:54.412Z,83.16
2023-02-05T21:31:57.531Z,83.07
2023-02-05T21:37:00.593Z,83.44
2023-02-05T21:42:03.827Z,83.67
2023-02-05T21:47:06.899Z,83.86
2023-02-05T21:52:09.830Z,83.83
2023-02-05T21:57:12.787Z,84.63
2023-02-05T22:02:15.848Z,85.07
2023-02-05T22:07:19.105Z,84.64
2023-02-05T22:12:21.956Z,84.68
2023-02-05T22:17:24.964Z,84.98
2023-02-05T22:22:27.956Z,84.79
2023-02-05T22:27:31.073Z,84.79
2023-02-05T22:32:33.936Z,84.71
2023-02-05T22:37:36.970Z,84.72
2023-02-05T22:42:40.040Z,84.43
2023-02-05T22:47:43.036Z,84.35
2023-02-05T22:52:46.053Z,84.50
2023-02-05T22:57:48.996Z,84.60
2023-02-05T23:02:51.911Z,84.61
2023-02-05T23:07:54.953Z,84.39
2023-02-05T23:12:58.001Z,84.44
2023-02-05T23:18:00.883Z,84.38
2023-02-05T23:23:04.289Z,84.45
2023-02-05T23:28:07.383Z,84.61
2023-02-05T23:33:10.299Z,84.63
2023-02-05T23:38:13.291Z,84.86
2023-02-05T23:43:16.520Z,84.78
2023-02-05T23:48:19.564Z,84.75
2023-02-05T23:53:23.473Z,84.64
2023-02-05T23:58:28.048Z,84.64
